createdAt,value
2022-12-22T00:00:32.318Z,11.18
2022-12-22T00:03:17.380Z,11.65
2022-12-22T00:06:02.692Z,11.18
2022-12-22T00:08:47.611Z,10.85
2022-12-22T00:11:33.089Z,11.57
2022-12-22T00:14:18.214Z,11.57
2022-12-22T00:17:04.198Z,11.50
2022-12-22T00:19:49.304Z,10.75
2022-12-22T00:22:41.859Z,11.35
2022-12-22T00:25:31.919Z,11.40
2022-12-22T00:28:17.032Z,10.82
2022-12-22T00:31:03.078Z,11.20
2022-12-22T00:33:48.147Z,11.48
2022-12-22T00:36:33.880Z,10.50
2022-12-22T00:39:19.329Z,10.65
2022-12-22T00:42:04.253Z,10.43
2022-12-22T00:44:49.587Z,10.23
2022-12-22T00:47:47.754Z,10.43
2022-12-22T00:50:34.302Z,10.35
2022-12-22T00:53:20.146Z,10.20
2022-12-22T00:56:05.468Z,10.38
2022-12-22T00:58:50.945Z,9.60
2022-12-22T01:01:35.898Z,9.85
2022-12-22T01:04:21.234Z,9.18
2022-12-22T01:07:06.175Z,9.88
2022-12-22T01:09:51.150Z,9.57
2022-12-22T01:12:46.809Z,10.10
2022-12-22T01:15:38.219Z,9.55
2022-12-22T01:18:24.075Z,10.00
2022-12-22T01:21:09.841Z,9.55
2022-12-22T01:23:55.715Z,9.65
2022-12-22T01:26:40.508Z,9.15
2022-12-22T01:29:25.271Z,9.57
2022-12-22T01:32:10.794Z,9.82
2022-12-22T01:34:56.124Z,10.05
2022-12-22T01:37:40.842Z,10.10
2022-12-22T01:40:32.872Z,9.68
2022-12-22T01:43:17.704Z,9.45
2022-12-22T01:46:03.091Z,9.50
2022-12-22T01:48:50.024Z,10.48
2022-12-22T01:51:41.856Z,10.63
2022-12-22T01:54:28.173Z,10.02
2022-12-22T01:57:13.764Z,10.05
2022-12-22T01:59:59.171Z,10.68
2022-12-22T02:02:46.621Z,10.85
2022-12-22T02:05:34.660Z,10.30
2022-12-22T02:08:19.567Z,9.50
2022-12-22T02:11:13.465Z,10.52
2022-12-22T02:14:04.376Z,10.20
2022-12-22T02:16:58.382Z,10.25
2022-12-22T02:20:11.578Z,9.93
2022-12-22T02:23:33.192Z,8.73
2022-12-22T02:26:46.968Z,9.15
2022-12-22T02:29:35.629Z,9.95
2022-12-22T02:32:21.179Z,10.07
2022-12-22T02:35:06.184Z,9.07
2022-12-22T02:38:12.520Z,9.88
2022-12-22T02:41:29.428Z,9.27
2022-12-22T02:44:22.264Z,8.95
2022-12-22T02:47:29.739Z,8.73
2022-12-22T02:50:27.655Z,9.20
2022-12-22T02:53:14.010Z,9.10
2022-12-22T02:55:59.197Z,8.68
2022-12-22T02:58:44.085Z,8.98
2022-12-22T03:01:29.655Z,8.95
2022-12-22T03:04:14.866Z,8.65
2022-12-22T03:07:00.011Z,8.90
2022-12-22T03:09:45.147Z,9.10
2022-12-22T03:12:30.321Z,9.57
2022-12-22T03:15:15.237Z,9.50
2022-12-22T03:18:00.504Z,9.73
2022-12-22T03:20:45.743Z,9.40
2022-12-22T03:23:31.172Z,9.18
2022-12-22T03:25:57.823Z,9.10
2022-12-22T03:28:28.711Z,9.73
2022-12-22T03:31:03.114Z,9.80
2022-12-22T03:33:31.046Z,9.73
2022-12-22T03:35:58.752Z,9.40
2022-12-22T03:38:25.813Z,9.18
2022-12-22T03:40:52.956Z,9.20
2022-12-22T03:43:37.836Z,9.90
2022-12-22T03:46:36.885Z,9.60
2022-12-22T03:49:11.236Z,10.18
2022-12-22T03:51:43.648Z,9.68
2022-12-22T03:54:12.343Z,9.50
2022-12-22T03:56:39.575Z,9.90
2022-12-22T03:59:06.472Z,8.90
2022-12-22T04:01:34.689Z,10.80
2022-12-22T04:04:01.267Z,10.30
2022-12-22T04:06:27.985Z,9.27
2022-12-22T04:08:54.712Z,9.98
2022-12-22T04:11:39.659Z,10.52
2022-12-22T04:14:06.161Z,9.35
2022-12-22T04:16:33.020Z,9.65
2022-12-22T04:18:59.781Z,10.48
2022-12-22T04:21:26.571Z,9.60
2022-12-22T04:23:53.124Z,10.07
2022-12-22T04:26:21.504Z,9.93
2022-12-22T04:31:14.553Z,9.70
2022-12-22T04:33:41.180Z,9.85
2022-12-22T04:36:08.260Z,10.50
2022-12-22T04:38:35.422Z,10.07
2022-12-22T04:41:02.014Z,9.52
2022-12-22T04:43:28.530Z,10.35
2022-12-22T04:45:56.295Z,9.98
2022-12-22T04:48:24.381Z,10.05
2022-12-22T04:50:52.695Z,10.07
2022-12-22T04:53:20.062Z,10.05
2022-12-22T04:55:55.097Z,10.00
2022-12-22T04:58:21.582Z,10.15
2022-12-22T05:00:48.176Z,9.50
2022-12-22T05:03:14.697Z,10.13
2022-12-22T05:05:41.209Z,9.98
2022-12-22T05:08:07.792Z,10.15
2022-12-22T05:10:34.319Z,9.73
2022-12-22T05:13:00.865Z,10.13
2022-12-22T05:15:35.675Z,9.82
2022-12-22T05:18:02.881Z,9.18
2022-12-22T05:20:29.644Z,9.90
2022-12-22T05:22:56.429Z,9.80
2022-12-22T05:25:23.257Z,9.20
2022-12-22T05:27:51.202Z,10.02
2022-12-22T05:30:19.289Z,9.55
2022-12-22T05:32:46.484Z,9.32
2022-12-22T05:35:13.020Z,9.77
2022-12-22T05:37:39.556Z,9.25
2022-12-22T05:40:07.530Z,9.18
2022-12-22T05:42:36.920Z,9.75
2022-12-22T05:45:23.151Z,8.98
2022-12-22T05:47:52.502Z,9.07
2022-12-22T05:50:22.742Z,8.63
2022-12-22T05:52:50.090Z,8.98
2022-12-22T05:55:17.306Z,9.23
2022-12-22T05:57:43.930Z,8.18
2022-12-22T06:00:14.210Z,8.75
2022-12-22T06:02:42.010Z,7.55
2022-12-22T06:05:09.938Z,8.45
2022-12-22T06:07:36.673Z,7.60
2022-12-22T06:10:11.272Z,8.05
2022-12-22T06:12:41.354Z,7.38
2022-12-22T06:15:09.844Z,7.88
2022-12-22T06:17:43.796Z,7.63
2022-12-22T06:20:12.350Z,8.07
2022-12-22T06:22:38.985Z,8.02
2022-12-22T06:25:06.089Z,7.85
2022-12-22T06:27:32.634Z,7.88
2022-12-22T06:29:59.143Z,8.25
2022-12-22T06:32:25.607Z,8.15
2022-12-22T06:34:52.081Z,9.73
2022-12-22T06:37:18.577Z,9.20
2022-12-22T06:39:45.070Z,9.52
2022-12-22T06:42:31.681Z,10.00
2022-12-22T06:44:58.345Z,9.10
2022-12-22T06:47:24.880Z,10.18
2022-12-22T06:49:52.252Z,10.02
2022-12-22T06:52:18.821Z,10.70
2022-12-22T06:54:45.420Z,10.18
2022-12-22T06:57:11.920Z,10.98
2022-12-22T06:59:38.412Z,11.52
2022-12-22T07:02:05.073Z,10.70
2022-12-22T07:04:31.752Z,10.85
2022-12-22T07:06:58.262Z,9.48
2022-12-22T07:09:24.766Z,10.40
2022-12-22T07:11:51.365Z,9.48
2022-12-22T07:14:17.952Z,10.65
2022-12-22T07:16:44.755Z,10.02
2022-12-22T07:19:11.284Z,9.85
2022-12-22T07:21:37.827Z,10.50
2022-12-22T07:24:04.733Z,10.57
2022-12-22T07:26:31.784Z,10.77
2022-12-22T07:28:58.344Z,10.70
2022-12-22T07:31:24.964Z,9.68
2022-12-22T07:33:51.643Z,10.20
2022-12-22T07:36:20.010Z,10.02
2022-12-22T07:38:49.723Z,9.93
2022-12-22T07:41:36.783Z,9.63
2022-12-22T07:44:04.687Z,9.38
2022-12-22T07:46:35.513Z,9.57
2022-12-22T07:49:21.383Z,9.68
2022-12-22T07:51:48.231Z,9.30
2022-12-22T07:54:16.095Z,13.68
2022-12-22T07:56:44.266Z,16.35
2022-12-22T07:59:11.142Z,17.42
2022-12-22T08:01:38.513Z,10.75
2022-12-22T08:04:05.206Z,11.10
2022-12-22T08:06:34.145Z,13.65
2022-12-22T08:09:01.142Z,9.85
2022-12-22T08:11:27.812Z,13.45
2022-12-22T08:14:00.827Z,12.27
2022-12-22T08:16:28.128Z,10.27
2022-12-22T08:18:54.624Z,12.35
2022-12-22T08:21:21.531Z,13.80
2022-12-22T08:23:48.143Z,7.38
2022-12-22T08:26:17.463Z,10.63
2022-12-22T08:28:53.297Z,9.82
2022-12-22T08:31:22.009Z,8.25
2022-12-22T08:33:48.628Z,7.13
2022-12-22T08:36:15.789Z,7.43
2022-12-22T08:38:43.793Z,7.30
2022-12-22T08:41:14.059Z,7.28
2022-12-22T08:43:40.593Z,8.02
2022-12-22T08:46:07.126Z,7.95
2022-12-22T08:48:33.750Z,9.68
2022-12-22T08:51:00.259Z,20.10
2022-12-22T08:54:02.515Z,10.02
2022-12-22T08:56:13.880Z,8.85
2022-12-22T08:58:40.864Z,9.07
2022-12-22T09:01:07.410Z,8.27
2022-12-22T09:03:33.985Z,7.18
2022-12-22T09:06:01.700Z,7.18
2022-12-22T09:08:28.367Z,6.53
2022-12-22T09:10:54.870Z,6.07
2022-12-22T09:13:21.373Z,6.25
2022-12-22T09:15:47.859Z,6.30
2022-12-22T09:18:14.390Z,6.10
2022-12-22T09:20:40.941Z,6.10
2022-12-22T09:23:07.460Z,7.53
2022-12-22T09:25:34.770Z,7.57
2022-12-22T09:28:01.254Z,8.32
2022-12-22T09:30:27.895Z,9.00
2022-12-22T09:32:55.011Z,8.57
2022-12-22T09:35:21.612Z,5.70
2022-12-22T09:37:49.237Z,6.82
2022-12-22T09:40:15.889Z,5.20
2022-12-22T09:42:42.487Z,5.55
2022-12-22T09:45:20.196Z,5.95
2022-12-22T09:47:54.809Z,5.03
2022-12-22T09:53:02.924Z,5.05
2022-12-22T09:55:47.280Z,4.85
2022-12-22T09:58:27.148Z,5.22
2022-12-22T10:01:05.540Z,4.55
2022-12-22T10:04:04.245Z,4.80
2022-12-22T10:06:45.818Z,5.07
2022-12-22T10:09:48.195Z,5.03
2022-12-22T10:12:07.691Z,5.35
2022-12-22T10:14:44.498Z,4.90
2022-12-22T10:17:34.270Z,4.70
2022-12-22T10:20:20.887Z,4.82
2022-12-22T10:22:59.828Z,4.88
2022-12-22T10:26:00.548Z,4.45
2022-12-22T10:28:44.283Z,4.40
2022-12-22T10:31:10.758Z,5.38
2022-12-22T10:33:45.820Z,5.50
2022-12-22T10:36:17.116Z,5.38
2022-12-22T10:38:59.005Z,4.82
2022-12-22T10:41:28.732Z,4.90
2022-12-22T10:44:07.071Z,4.68
2022-12-22T10:46:43.825Z,4.95
2022-12-22T10:49:12.246Z,4.78
2022-12-22T10:54:06.494Z,4.78
2022-12-22T10:56:34.007Z,5.00
2022-12-22T10:59:04.014Z,4.65
2022-12-22T11:01:34.451Z,5.30
2022-12-22T11:04:27.597Z,5.13
2022-12-22T11:06:55.928Z,4.65
2022-12-22T11:09:37.942Z,5.07
2022-12-22T11:12:40.144Z,5.35
2022-12-22T11:15:28.415Z,5.05
2022-12-22T11:18:25.937Z,5.45
2022-12-22T11:21:25.061Z,5.55
2022-12-22T11:23:54.764Z,5.22
2022-12-22T11:26:47.382Z,5.28
2022-12-22T11:30:03.115Z,5.68
2022-12-22T11:32:48.456Z,5.63
2022-12-22T11:35:37.255Z,5.65
2022-12-22T11:38:16.192Z,5.70
2022-12-22T11:40:46.792Z,5.90
2022-12-22T11:43:21.158Z,6.93
2022-12-22T11:45:56.654Z,6.30
2022-12-22T11:48:38.185Z,6.43
2022-12-22T11:51:23.829Z,6.68
2022-12-22T11:54:38.876Z,6.25
2022-12-22T11:57:19.712Z,6.85
2022-12-22T11:59:58.203Z,6.90
2022-12-22T12:02:57.002Z,6.68
2022-12-22T12:05:32.387Z,6.75
2022-12-22T12:08:01.924Z,6.05
2022-12-22T12:10:35.921Z,5.35
2022-12-22T12:13:33.148Z,4.95
2022-12-22T12:16:25.180Z,5.50
2022-12-22T12:19:39.803Z,5.57
2022-12-22T12:22:14.255Z,4.47
2022-12-22T12:24:45.575Z,4.30
2022-12-22T12:27:45.265Z,3.92
2022-12-22T12:33:08.571Z,4.07
2022-12-22T12:35:53.339Z,3.80
2022-12-22T12:39:05.800Z,3.45
2022-12-22T12:41:45.276Z,4.75
2022-12-22T12:44:18.944Z,6.50
2022-12-22T12:46:51.271Z,6.97
2022-12-22T12:49:36.274Z,6.25
2022-12-22T12:52:07.541Z,7.13
2022-12-22T12:54:39.223Z,7.55
2022-12-22T12:57:11.758Z,7.55
2022-12-22T12:59:41.252Z,7.63
2022-12-22T13:02:40.198Z,7.80
2022-12-22T13:05:13.002Z,8.40
2022-12-22T13:08:05.645Z,8.57
2022-12-22T13:10:45.185Z,8.82
2022-12-22T13:13:24.187Z,8.13
2022-12-22T13:15:59.492Z,7.97
2022-12-22T13:18:26.293Z,7.88
2022-12-22T13:24:26.856Z,7.97
2022-12-22T13:26:55.939Z,7.65
2022-12-22T13:29:22.643Z,7.72
2022-12-22T13:31:54.639Z,8.68
2022-12-22T13:37:44.797Z,7.88
2022-12-22T13:40:18.135Z,7.68
2022-12-22T13:42:54.864Z,7.68
2022-12-22T13:45:46.090Z,8.18
2022-12-22T13:48:15.646Z,8.32
2022-12-22T13:50:54.025Z,8.90
2022-12-22T13:54:07.908Z,8.52
2022-12-22T13:56:56.599Z,8.20
2022-12-22T13:59:32.058Z,7.72
2022-12-22T14:02:04.632Z,8.90
2022-12-22T14:04:31.264Z,8.07
2022-12-22T14:07:09.281Z,8.93
2022-12-22T14:09:35.854Z,8.30
2022-12-22T14:12:02.326Z,9.40
2022-12-22T14:14:34.011Z,8.23
2022-12-22T14:17:01.064Z,8.77
2022-12-22T14:19:36.172Z,8.07
2022-12-22T14:22:14.300Z,9.10
2022-12-22T14:24:55.940Z,9.23
2022-12-22T14:27:39.244Z,8.82
2022-12-22T14:30:16.188Z,9.38
2022-12-22T14:32:52.361Z,10.20
2022-12-22T14:35:21.072Z,10.23
2022-12-22T14:37:56.510Z,10.07
2022-12-22T14:40:40.806Z,9.80
2022-12-22T14:43:24.497Z,9.38
2022-12-22T14:46:00.508Z,9.73
2022-12-22T14:48:37.714Z,9.90
2022-12-22T14:51:05.123Z,10.10
2022-12-22T14:53:48.131Z,10.63
2022-12-22T14:56:17.603Z,10.60
2022-12-22T14:58:45.646Z,9.90
2022-12-22T15:01:28.582Z,10.50
2022-12-22T15:04:04.440Z,10.15
2022-12-22T15:06:37.469Z,9.82
2022-12-22T15:09:08.888Z,10.45
2022-12-22T15:11:38.936Z,9.93
2022-12-22T15:14:05.485Z,10.77
2022-12-22T15:16:32.111Z,10.38
2022-12-22T15:18:58.643Z,10.32
2022-12-22T15:21:25.111Z,10.50
2022-12-22T15:23:51.673Z,10.85
2022-12-22T15:26:18.147Z,11.13
2022-12-22T15:28:44.721Z,10.98
2022-12-22T15:31:16.444Z,10.45
2022-12-22T15:33:45.353Z,10.85
2022-12-22T15:36:14.216Z,11.65
2022-12-22T15:38:42.249Z,10.63
2022-12-22T15:41:08.695Z,11.85
2022-12-22T15:43:57.426Z,11.90
2022-12-22T15:46:24.831Z,12.25
2022-12-22T15:48:51.855Z,12.30
2022-12-22T15:51:25.838Z,13.85
2022-12-22T15:53:54.178Z,13.10
2022-12-22T15:56:25.053Z,12.43
2022-12-22T15:58:52.126Z,12.75
2022-12-22T16:01:18.832Z,12.70
2022-12-22T16:03:45.515Z,11.93
2022-12-22T16:06:17.673Z,12.85
2022-12-22T16:08:49.716Z,12.68
2022-12-22T16:11:17.224Z,12.27
2022-12-22T16:13:44.763Z,13.18
2022-12-22T16:16:12.107Z,12.95
2022-12-22T16:18:38.793Z,12.00
2022-12-22T16:21:13.151Z,13.15
2022-12-22T16:23:42.640Z,13.50
2022-12-22T16:26:21.915Z,12.18
2022-12-22T16:28:48.846Z,13.55
2022-12-22T16:31:22.026Z,13.07
2022-12-22T16:33:49.060Z,13.40
2022-12-22T16:36:15.758Z,12.20
2022-12-22T16:38:43.141Z,13.20
2022-12-22T16:41:27.639Z,12.77
2022-12-22T16:44:03.768Z,17.30
2022-12-22T16:46:36.282Z,14.73
2022-12-22T16:49:05.392Z,13.05
2022-12-22T16:51:34.141Z,12.95
2022-12-22T16:54:01.851Z,16.88
2022-12-22T16:56:30.575Z,12.25
2022-12-22T16:58:57.747Z,11.35
2022-12-22T17:01:43.762Z,11.57
2022-12-22T17:04:16.998Z,16.08
2022-12-22T17:06:43.567Z,15.90
2022-12-22T17:09:17.468Z,14.30
2022-12-22T17:11:46.088Z,10.93
2022-12-22T17:14:29.814Z,11.55
2022-12-22T17:16:56.364Z,13.45
2022-12-22T17:19:23.149Z,10.00
2022-12-22T17:21:50.625Z,9.00
2022-12-22T17:24:24.344Z,9.38
2022-12-22T17:26:54.379Z,9.32
2022-12-22T17:29:23.720Z,10.30
2022-12-22T17:31:51.057Z,10.07
2022-12-22T17:34:18.989Z,10.05
2022-12-22T17:36:47.625Z,9.15
2022-12-22T17:39:16.589Z,9.77
2022-12-22T17:41:43.371Z,9.70
2022-12-22T17:44:17.523Z,9.13
2022-12-22T17:46:44.140Z,9.90
2022-12-22T17:49:10.625Z,9.52
2022-12-22T17:51:37.801Z,9.23
2022-12-22T17:54:04.684Z,8.98
2022-12-22T17:56:31.578Z,9.57
2022-12-22T17:58:58.047Z,9.40
2022-12-22T18:01:31.706Z,11.52
2022-12-22T18:03:58.894Z,9.23
2022-12-22T18:06:33.313Z,10.07
2022-12-22T18:09:00.596Z,8.43
2022-12-22T18:11:27.852Z,8.05
2022-12-22T18:13:57.276Z,7.75
2022-12-22T18:16:24.210Z,8.32
2022-12-22T18:18:50.830Z,8.10
2022-12-22T18:21:21.076Z,7.63
2022-12-22T18:23:50.593Z,8.63
2022-12-22T18:26:24.059Z,7.43
2022-12-22T18:28:51.013Z,7.78
2022-12-22T18:31:18.689Z,7.78
2022-12-22T18:33:45.453Z,9.52
2022-12-22T18:36:16.686Z,7.43
2022-12-22T18:38:43.393Z,8.63
2022-12-22T18:41:11.821Z,7.45
2022-12-22T18:43:38.425Z,7.40
2022-12-22T18:46:04.977Z,7.80
2022-12-22T18:48:31.668Z,7.70
2022-12-22T18:50:58.225Z,8.13
2022-12-22T18:53:28.738Z,7.28
2022-12-22T18:55:56.128Z,7.72
2022-12-22T18:58:23.723Z,7.22
2022-12-22T19:00:51.439Z,7.40
2022-12-22T19:03:24.333Z,6.35
2022-12-22T19:05:51.355Z,7.15
2022-12-22T19:08:19.982Z,6.80
2022-12-22T19:10:58.311Z,7.47
2022-12-22T19:13:38.178Z,6.80
2022-12-22T19:16:05.919Z,7.28
2022-12-22T19:18:32.820Z,7.38
2022-12-22T19:20:59.473Z,7.28
2022-12-22T19:23:26.405Z,7.88
2022-12-22T19:25:56.146Z,8.15
2022-12-22T19:28:33.618Z,7.80
2022-12-22T19:31:00.781Z,7.65
2022-12-22T19:33:30.231Z,7.05
2022-12-22T19:35:57.972Z,7.53
2022-12-22T19:38:26.381Z,14.02
2022-12-22T19:40:57.662Z,7.70
2022-12-22T19:43:24.437Z,7.90
2022-12-22T19:45:52.600Z,7.75
2022-12-22T19:48:23.431Z,7.93
2022-12-22T19:50:51.260Z,8.25
2022-12-22T19:53:19.317Z,7.43
2022-12-22T19:55:51.809Z,7.75
2022-12-22T19:58:29.346Z,8.13
2022-12-22T20:00:56.145Z,7.85
2022-12-22T20:03:25.107Z,8.40
2022-12-22T20:05:52.139Z,8.30
2022-12-22T20:08:19.174Z,9.00
2022-12-22T20:10:46.577Z,9.80
2022-12-22T20:13:16.585Z,9.73
2022-12-22T20:15:43.739Z,9.68
2022-12-22T20:18:22.136Z,9.27
2022-12-22T20:21:04.162Z,10.30
2022-12-22T20:23:33.847Z,9.00
2022-12-22T20:26:03.373Z,8.80
2022-12-22T20:28:33.107Z,10.38
2022-12-22T20:31:01.623Z,9.88
2022-12-22T20:35:56.271Z,8.48
2022-12-22T20:38:38.867Z,9.05
2022-12-22T20:41:08.245Z,9.23
2022-12-22T20:43:36.210Z,8.80
2022-12-22T20:46:11.119Z,10.82
2022-12-22T20:48:40.414Z,9.93
2022-12-22T20:51:11.294Z,8.52
2022-12-22T20:53:37.854Z,7.75
2022-12-22T20:56:16.407Z,7.78
2022-12-22T20:58:43.106Z,7.57
2022-12-22T21:01:10.175Z,7.43
2022-12-22T21:03:36.753Z,7.40
2022-12-22T21:06:21.683Z,9.07
2022-12-22T21:08:48.235Z,7.63
2022-12-22T21:11:14.928Z,6.90
2022-12-22T21:13:41.499Z,7.60
2022-12-22T21:16:14.498Z,6.53
2022-12-22T21:18:41.067Z,6.95
2022-12-22T21:21:07.633Z,6.93
2022-12-22T21:23:34.146Z,6.78
2022-12-22T21:26:00.696Z,7.18
2022-12-22T21:28:29.273Z,6.70
2022-12-22T21:30:56.012Z,6.93
2022-12-22T21:33:23.501Z,6.75
2022-12-22T21:35:50.707Z,6.43
2022-12-22T21:38:20.272Z,6.88
2022-12-22T21:40:46.939Z,7.00
2022-12-22T21:43:16.154Z,6.78
2022-12-22T21:45:44.050Z,6.85
2022-12-22T21:48:12.810Z,6.50
2022-12-22T21:50:39.416Z,5.93
2022-12-22T21:53:06.393Z,6.10
2022-12-22T21:55:35.609Z,5.30
2022-12-22T21:58:03.548Z,5.63
2022-12-22T22:00:30.913Z,5.93
2022-12-22T22:02:58.075Z,5.53
2022-12-22T22:05:36.145Z,6.00
2022-12-22T22:08:04.446Z,5.22
2022-12-22T22:10:33.517Z,5.80
2022-12-22T22:13:00.563Z,5.78
2022-12-22T22:15:28.607Z,5.57
2022-12-22T22:17:58.692Z,5.80
2022-12-22T22:20:32.258Z,5.10
2022-12-22T22:22:59.856Z,4.70
2022-12-22T22:25:27.225Z,4.45
2022-12-22T22:27:53.784Z,4.57
2022-12-22T22:30:22.861Z,4.20
2022-12-22T22:32:49.444Z,4.53
2022-12-22T22:35:18.607Z,3.88
2022-12-22T22:37:46.225Z,3.67
2022-12-22T22:40:15.215Z,3.38
2022-12-22T22:42:41.882Z,3.80
2022-12-22T22:45:10.712Z,3.88
2022-12-22T22:47:38.453Z,3.38
2022-12-22T22:50:06.931Z,3.53
2022-12-22T22:52:34.092Z,3.65
2022-12-22T22:55:00.728Z,3.55
2022-12-22T22:57:27.386Z,3.58
2022-12-22T22:59:53.968Z,3.40
2022-12-22T23:02:20.758Z,3.67
2022-12-22T23:04:47.507Z,3.67
2022-12-22T23:07:14.135Z,4.20
2022-12-22T23:09:40.833Z,4.20
2022-12-22T23:12:07.431Z,3.95
2022-12-22T23:14:35.004Z,4.50
2022-12-22T23:17:01.644Z,4.28
2022-12-22T23:19:28.346Z,4.18
2022-12-22T23:21:54.900Z,4.28
2022-12-22T23:24:21.544Z,4.85
2022-12-22T23:26:48.284Z,4.38
2022-12-22T23:29:15.036Z,4.55
2022-12-22T23:31:41.585Z,4.82
2022-12-22T23:34:10.767Z,4.55
2022-12-22T23:36:37.362Z,4.78
2022-12-22T23:39:04.042Z,5.03
2022-12-22T23:41:30.548Z,4.82
2022-12-22T23:43:57.148Z,5.20
2022-12-22T23:46:23.745Z,5.50
2022-12-22T23:48:56.395Z,5.25
2022-12-22T23:51:25.081Z,5.72
2022-12-22T23:53:51.594Z,5.28
2022-12-22T23:56:18.421Z,5.40
2022-12-22T23:58:48.189Z,5.90
